sensor_id;sensor_type;location;lat;lon;timestamp;P1;durP1;ratioP1;P2;durP2;ratioP2
44046;SDS011;29713;-33.888;151.150;2023-04-07T00:00:59;5.22;;;2.30;;
44046;SDS011;29713;-33.888;151.150;2023-04-07T00:03:27;5.22;;;2.88;;
44046;SDS011;29713;-33.888;151.150;2023-04-07T00:05:54;4.68;;;2.78;;
44046;SDS011;29713;-33.888;151.150;2023-04-07T00:08:21;5.25;;;2.78;;
44046;SDS011;29713;-33.888;151.150;2023-04-07T00:10:49;6.53;;;3.60;;
44046;SDS011;29713;-33.888;151.150;2023-04-07T00:13:16;4.65;;;3.35;;
44046;SDS011;29713;-33.888;151.150;2023-04-07T00:15:46;4.90;;;3.42;;
44046;SDS011;29713;-33.888;151.150;2023-04-07T00:18:13;5.32;;;3.13;;
44046;SDS011;29713;-33.888;151.150;2023-04-07T00:20:41;7.82;;;3.90;;
44046;SDS011;29713;-33.888;151.150;2023-04-07T00:23:08;5.60;;;3.58;;
44046;SDS011;29713;-33.888;151.150;2023-04-07T00:25:35;6.45;;;3.47;;
44046;SDS011;29713;-33.888;151.150;2023-04-07T00:28:03;5.82;;;3.67;;
44046;SDS011;29713;-33.888;151.150;2023-04-07T00:30:30;5.50;;;3.95;;
44046;SDS011;29713;-33.888;151.150;2023-04-07T00:32:57;4.65;;;4.13;;
44046;SDS011;29713;-33.888;151.150;2023-04-07T00:35:25;8.13;;;4.05;;
44046;SDS011;29713;-33.888;151.150;2023-04-07T00:37:52;4.40;;;3.55;;
44046;SDS011;29713;-33.888;151.150;2023-04-07T00:40:19;7.25;;;4.13;;
44046;SDS011;29713;-33.888;151.150;2023-04-07T00:42:47;6.85;;;3.92;;
44046;SDS011;29713;-33.888;151.150;2023-04-07T00:45:14;7.93;;;4.72;;
44046;SDS011;29713;-33.888;151.150;2023-04-07T00:47:41;7.70;;;5.43;;
44046;SDS011;29713;-33.888;151.150;2023-04-07T00:50:09;8.65;;;5.00;;
44046;SDS011;29713;-33.888;151.150;2023-04-07T00:52:36;8.88;;;5.50;;
44046;SDS011;29713;-33.888;151.150;2023-04-07T00:55:07;7.97;;;4.47;;
44046;SDS011;29713;-33.888;151.150;2023-04-07T00:57:35;7.07;;;4.13;;
44046;SDS011;29713;-33.888;151.150;2023-04-07T01:00:02;6.68;;;4.00;;
44046;SDS011;29713;-33.888;151.150;2023-04-07T01:02:32;8.02;;;3.80;;
44046;SDS011;29713;-33.888;151.150;2023-04-07T01:05:29;5.50;;;3.22;;
44046;SDS011;29713;-33.888;151.150;2023-04-07T01:14:21;1.83;;;1.15;;
44046;SDS011;29713;-33.888;151.150;2023-04-07T01:16:50;4.72;;;1.90;;
44046;SDS011;29713;-33.888;151.150;2023-04-07T01:19:38;3.47;;;1.45;;
44046;SDS011;29713;-33.888;151.150;2023-04-07T01:22:15;3.42;;;1.52;;
44046;SDS011;29713;-33.888;151.150;2023-04-07T01:30:28;2.55;;;1.50;;
44046;SDS011;29713;-33.888;151.150;2023-04-07T01:32:58;3.22;;;1.25;;
44046;SDS011;29713;-33.888;151.150;2023-04-07T01:35:29;4.45;;;1.30;;
44046;SDS011;29713;-33.888;151.150;2023-04-07T01:37:59;2.70;;;1.30;;
44046;SDS011;29713;-33.888;151.150;2023-04-07T01:40:28;3.60;;;1.30;;
44046;SDS011;29713;-33.888;151.150;2023-04-07T01:42:58;2.47;;;1.48;;
44046;SDS011;29713;-33.888;151.150;2023-04-07T01:45:26;3.60;;;1.40;;
44046;SDS011;29713;-33.888;151.150;2023-04-07T01:47:55;2.78;;;1.23;;
44046;SDS011;29713;-33.888;151.150;2023-04-07T01:50:24;2.92;;;1.02;;
44046;SDS011;29713;-33.888;151.150;2023-04-07T01:52:52;2.33;;;1.27;;
44046;SDS011;29713;-33.888;151.150;2023-04-07T01:55:20;3.45;;;1.38;;
44046;SDS011;29713;-33.888;151.150;2023-04-07T01:57:48;6.07;;;1.67;;
44046;SDS011;29713;-33.888;151.150;2023-04-07T02:00:15;3.72;;;1.30;;
44046;SDS011;29713;-33.888;151.150;2023-04-07T02:02:43;2.42;;;1.02;;
44046;SDS011;29713;-33.888;151.150;2023-04-07T02:05:13;3.10;;;1.15;;
44046;SDS011;29713;-33.888;151.150;2023-04-07T02:07:48;3.35;;;0.98;;
44046;SDS011;29713;-33.888;151.150;2023-04-07T02:10:20;2.25;;;0.73;;
44046;SDS011;29713;-33.888;151.150;2023-04-07T02:12:49;2.10;;;0.95;;
44046;SDS011;29713;-33.888;151.150;2023-04-07T02:15:19;2.83;;;1.05;;
44046;SDS011;29713;-33.888;151.150;2023-04-07T02:17:49;4.57;;;1.00;;
44046;SDS011;29713;-33.888;151.150;2023-04-07T02:20:19;3.55;;;0.93;;
44046;SDS011;29713;-33.888;151.150;2023-04-07T02:22:46;2.17;;;0.70;;
44046;SDS011;29713;-33.888;151.150;2023-04-07T02:25:24;1.95;;;0.73;;
44046;SDS011;29713;-33.888;151.150;2023-04-07T02:27:57;3.22;;;0.80;;
44046;SDS011;29713;-33.888;151.150;2023-04-07T02:30:25;3.22;;;0.98;;
44046;SDS011;29713;-33.888;151.150;2023-04-07T02:32:52;1.50;;;0.60;;
44046;SDS011;29713;-33.888;151.150;2023-04-07T02:35:20;4.10;;;0.70;;
44046;SDS011;29713;-33.888;151.150;2023-04-07T02:37:48;3.35;;;0.77;;
44046;SDS011;29713;-33.888;151.150;2023-04-07T02:40:16;3.17;;;0.80;;
44046;SDS011;29713;-33.888;151.150;2023-04-07T02:42:43;1.40;;;0.68;;
44046;SDS011;29713;-33.888;151.150;2023-04-07T02:45:11;5.55;;;0.77;;
44046;SDS011;29713;-33.888;151.150;2023-04-07T02:47:39;1.45;;;0.60;;
44046;SDS011;29713;-33.888;151.150;2023-04-07T02:50:06;1.88;;;0.77;;
44046;SDS011;29713;-33.888;151.150;2023-04-07T02:52:34;2.80;;;1.00;;
44046;SDS011;29713;-33.888;151.150;2023-04-07T02:55:01;7.05;;;0.82;;
44046;SDS011;29713;-33.888;151.150;2023-04-07T02:57:29;1.38;;;0.60;;
44046;SDS011;29713;-33.888;151.150;2023-04-07T02:59:56;2.15;;;0.80;;
44046;SDS011;29713;-33.888;151.150;2023-04-07T03:02:23;0.88;;;0.50;;
44046;SDS011;29713;-33.888;151.150;2023-04-07T03:04:51;3.45;;;0.70;;
44046;SDS011;29713;-33.888;151.150;2023-04-07T03:07:18;2.55;;;0.95;;
44046;SDS011;29713;-33.888;151.150;2023-04-07T03:09:46;2.15;;;0.70;;
44046;SDS011;29713;-33.888;151.150;2023-04-07T03:12:13;2.45;;;0.77;;
44046;SDS011;29713;-33.888;151.150;2023-04-07T03:14:40;1.50;;;1.00;;
44046;SDS011;29713;-33.888;151.150;2023-04-07T03:17:08;2.25;;;0.60;;
44046;SDS011;29713;-33.888;151.150;2023-04-07T03:19:35;3.75;;;0.60;;
44046;SDS011;29713;-33.888;151.150;2023-04-07T03:22:02;1.17;;;0.50;;
44046;SDS011;29713;-33.888;151.150;2023-04-07T03:24:30;1.83;;;0.77;;
44046;SDS011;29713;-33.888;151.150;2023-04-07T03:26:57;2.38;;;0.60;;
44046;SDS011;29713;-33.888;151.150;2023-04-07T03:29:26;1.67;;;0.70;;
44046;SDS011;29713;-33.888;151.150;2023-04-07T03:31:53;2.97;;;0.70;;
44046;SDS011;29713;-33.888;151.150;2023-04-07T03:34:21;2.85;;;0.70;;
44046;SDS011;29713;-33.888;151.150;2023-04-07T03:36:49;1.20;;;0.70;;
44046;SDS011;29713;-33.888;151.150;2023-04-07T03:39:16;2.03;;;0.60;;
44046;SDS011;29713;-33.888;151.150;2023-04-07T03:41:43;2.33;;;0.70;;
44046;SDS011;29713;-33.888;151.150;2023-04-07T03:44:11;1.73;;;0.43;;
44046;SDS011;29713;-33.888;151.150;2023-04-07T03:46:38;1.42;;;0.82;;
44046;SDS011;29713;-33.888;151.150;2023-04-07T03:49:05;0.95;;;0.55;;
44046;SDS011;29713;-33.888;151.150;2023-04-07T03:51:33;3.67;;;0.80;;
44046;SDS011;29713;-33.888;151.150;2023-04-07T03:54:00;1.33;;;0.73;;
44046;SDS011;29713;-33.888;151.150;2023-04-07T03:56:27;1.63;;;0.70;;
44046;SDS011;29713;-33.888;151.150;2023-04-07T03:58:55;3.38;;;0.55;;
44046;SDS011;29713;-33.888;151.150;2023-04-07T04:01:22;1.33;;;0.43;;
44046;SDS011;29713;-33.888;151.150;2023-04-07T04:03:50;1.33;;;0.70;;
44046;SDS011;29713;-33.888;151.150;2023-04-07T04:06:17;1.77;;;0.60;;
44046;SDS011;29713;-33.888;151.150;2023-04-07T04:08:44;1.77;;;0.70;;
44046;SDS011;29713;-33.888;151.150;2023-04-07T04:11:12;0.98;;;0.60;;
44046;SDS011;29713;-33.888;151.150;2023-04-07T04:13:39;1.33;;;0.77;;
44046;SDS011;29713;-33.888;151.150;2023-04-07T04:16:06;1.65;;;0.70;;
44046;SDS011;29713;-33.888;151.150;2023-04-07T04:18:34;1.80;;;0.85;;
44046;SDS011;29713;-33.888;151.150;2023-04-07T04:21:01;1.40;;;0.73;;
44046;SDS011;29713;-33.888;151.150;2023-04-07T04:23:28;0.70;;;0.45;;
44046;SDS011;29713;-33.888;151.150;2023-04-07T04:25:56;0.65;;;0.65;;
44046;SDS011;29713;-33.888;151.150;2023-04-07T04:28:24;1.33;;;0.60;;
44046;SDS011;29713;-33.888;151.150;2023-04-07T04:30:52;1.25;;;0.40;;
44046;SDS011;29713;-33.888;151.150;2023-04-07T04:33:19;1.65;;;0.57;;
44046;SDS011;29713;-33.888;151.150;2023-04-07T04:35:46;1.08;;;0.55;;
44046;SDS011;29713;-33.888;151.150;2023-04-07T04:38:14;1.27;;;0.40;;
44046;SDS011;29713;-33.888;151.150;2023-04-07T04:40:42;2.63;;;0.75;;
44046;SDS011;29713;-33.888;151.150;2023-04-07T04:43:09;1.20;;;0.60;;
44046;SDS011;29713;-33.888;151.150;2023-04-07T04:45:36;0.50;;;0.50;;
44046;SDS011;29713;-33.888;151.150;2023-04-07T04:48:04;0.82;;;0.60;;
44046;SDS011;29713;-33.888;151.150;2023-04-07T04:50:31;1.95;;;0.60;;
44046;SDS011;29713;-33.888;151.150;2023-04-07T04:52:58;0.95;;;0.50;;
44046;SDS011;29713;-33.888;151.150;2023-04-07T04:55:26;1.08;;;0.45;;
44046;SDS011;29713;-33.888;151.150;2023-04-07T04:57:54;0.50;;;0.50;;
44046;SDS011;29713;-33.888;151.150;2023-04-07T05:00:22;1.08;;;0.52;;
44046;SDS011;29713;-33.888;151.150;2023-04-07T05:02:49;0.77;;;0.50;;
44046;SDS011;29713;-33.888;151.150;2023-04-07T05:05:16;1.75;;;0.45;;
44046;SDS011;29713;-33.888;151.150;2023-04-07T05:07:44;0.63;;;0.38;;
44046;SDS011;29713;-33.888;151.150;2023-04-07T05:10:11;2.42;;;0.77;;
44046;SDS011;29713;-33.888;151.150;2023-04-07T05:12:42;0.85;;;0.50;;
44046;SDS011;29713;-33.888;151.150;2023-04-07T05:15:09;1.10;;;0.45;;
44046;SDS011;29713;-33.888;151.150;2023-04-07T05:17:37;1.55;;;0.60;;
44046;SDS011;29713;-33.888;151.150;2023-04-07T05:20:04;1.13;;;0.50;;
44046;SDS011;29713;-33.888;151.150;2023-04-07T05:22:34;0.75;;;0.40;;
44046;SDS011;29713;-33.888;151.150;2023-04-07T05:25:01;1.65;;;0.60;;
44046;SDS011;29713;-33.888;151.150;2023-04-07T05:27:29;0.82;;;0.50;;
44046;SDS011;29713;-33.888;151.150;2023-04-07T05:29:56;1.48;;;0.50;;
44046;SDS011;29713;-33.888;151.150;2023-04-07T05:32:24;1.02;;;0.40;;
44046;SDS011;29713;-33.888;151.150;2023-04-07T05:34:53;1.42;;;0.60;;
44046;SDS011;29713;-33.888;151.150;2023-04-07T05:37:23;5.47;;;1.00;;
44046;SDS011;29713;-33.888;151.150;2023-04-07T05:39:51;2.30;;;0.95;;
44046;SDS011;29713;-33.888;151.150;2023-04-07T05:42:18;3.83;;;1.38;;
44046;SDS011;29713;-33.888;151.150;2023-04-07T05:44:46;2.72;;;1.10;;
44046;SDS011;29713;-33.888;151.150;2023-04-07T05:47:13;4.38;;;1.65;;
44046;SDS011;29713;-33.888;151.150;2023-04-07T05:49:40;4.95;;;1.33;;
44046;SDS011;29713;-33.888;151.150;2023-04-07T05:52:11;6.03;;;1.77;;
44046;SDS011;29713;-33.888;151.150;2023-04-07T05:54:38;4.55;;;1.60;;
44046;SDS011;29713;-33.888;151.150;2023-04-07T05:57:06;5.80;;;1.80;;
44046;SDS011;29713;-33.888;151.150;2023-04-07T05:59:34;2.92;;;1.30;;
44046;SDS011;29713;-33.888;151.150;2023-04-07T06:02:02;3.35;;;1.38;;
44046;SDS011;29713;-33.888;151.150;2023-04-07T06:04:30;1.83;;;0.90;;
44046;SDS011;29713;-33.888;151.150;2023-04-07T06:07:00;7.25;;;1.98;;
44046;SDS011;29713;-33.888;151.150;2023-04-07T06:09:27;2.78;;;1.17;;
44046;SDS011;29713;-33.888;151.150;2023-04-07T06:11:55;6.25;;;1.50;;
44046;SDS011;29713;-33.888;151.150;2023-04-07T06:14:22;4.03;;;1.58;;
44046;SDS011;29713;-33.888;151.150;2023-04-07T06:16:50;5.20;;;1.30;;
44046;SDS011;29713;-33.888;151.150;2023-04-07T06:19:18;4.13;;;1.30;;
44046;SDS011;29713;-33.888;151.150;2023-04-07T06:21:45;4.35;;;1.35;;
44046;SDS011;29713;-33.888;151.150;2023-04-07T06:24:12;1.63;;;1.00;;
44046;SDS011;29713;-33.888;151.150;2023-04-07T06:26:40;3.65;;;1.08;;
44046;SDS011;29713;-33.888;151.150;2023-04-07T06:29:07;3.13;;;1.17;;
44046;SDS011;29713;-33.888;151.150;2023-04-07T06:31:35;4.22;;;1.42;;
44046;SDS011;29713;-33.888;151.150;2023-04-07T06:34:02;2.90;;;1.17;;
44046;SDS011;29713;-33.888;151.150;2023-04-07T06:36:30;1.05;;;0.95;;
44046;SDS011;29713;-33.888;151.150;2023-04-07T06:38:58;2.40;;;0.90;;
44046;SDS011;29713;-33.888;151.150;2023-04-07T06:41:25;0.85;;;0.60;;
44046;SDS011;29713;-33.888;151.150;2023-04-07T06:43:53;1.27;;;0.60;;
44046;SDS011;29713;-33.888;151.150;2023-04-07T06:46:20;0.80;;;0.70;;
44046;SDS011;29713;-33.888;151.150;2023-04-07T06:48:47;3.35;;;0.80;;
44046;SDS011;29713;-33.888;151.150;2023-04-07T06:51:15;1.85;;;0.70;;
44046;SDS011;29713;-33.888;151.150;2023-04-07T06:53:42;1.25;;;0.80;;
44046;SDS011;29713;-33.888;151.150;2023-04-07T06:56:10;1.55;;;0.68;;
44046;SDS011;29713;-33.888;151.150;2023-04-07T06:58:37;2.58;;;0.80;;
44046;SDS011;29713;-33.888;151.150;2023-04-07T07:01:05;1.48;;;0.90;;
44046;SDS011;29713;-33.888;151.150;2023-04-07T07:03:32;3.05;;;1.02;;
44046;SDS011;29713;-33.888;151.150;2023-04-07T07:06:00;2.65;;;1.15;;
44046;SDS011;29713;-33.888;151.150;2023-04-07T07:08:28;1.13;;;1.00;;
44046;SDS011;29713;-33.888;151.150;2023-04-07T07:10:55;1.10;;;0.80;;
44046;SDS011;29713;-33.888;151.150;2023-04-07T07:13:23;0.80;;;0.57;;
44046;SDS011;29713;-33.888;151.150;2023-04-07T07:15:52;1.02;;;0.63;;
44046;SDS011;29713;-33.888;151.150;2023-04-07T07:18:20;2.03;;;0.90;;
44046;SDS011;29713;-33.888;151.150;2023-04-07T07:20:47;2.15;;;0.90;;
44046;SDS011;29713;-33.888;151.150;2023-04-07T07:23:15;1.63;;;0.50;;
44046;SDS011;29713;-33.888;151.150;2023-04-07T07:25:43;0.75;;;0.60;;
44046;SDS011;29713;-33.888;151.150;2023-04-07T07:28:11;0.45;;;0.45;;
44046;SDS011;29713;-33.888;151.150;2023-04-07T07:30:38;4.68;;;0.90;;
44046;SDS011;29713;-33.888;151.150;2023-04-07T07:33:06;2.17;;;0.70;;
44046;SDS011;29713;-33.888;151.150;2023-04-07T07:35:33;1.67;;;0.70;;
44046;SDS011;29713;-33.888;151.150;2023-04-07T07:38:02;0.57;;;0.57;;
44046;SDS011;29713;-33.888;151.150;2023-04-07T07:40:29;1.95;;;0.60;;
44046;SDS011;29713;-33.888;151.150;2023-04-07T07:42:57;1.17;;;0.90;;
44046;SDS011;29713;-33.888;151.150;2023-04-07T07:45:27;1.50;;;0.70;;
44046;SDS011;29713;-33.888;151.150;2023-04-07T07:47:54;0.63;;;0.63;;
44046;SDS011;29713;-33.888;151.150;2023-04-07T07:50:22;1.20;;;0.70;;
44046;SDS011;29713;-33.888;151.150;2023-04-07T07:52:49;1.20;;;0.70;;
44046;SDS011;29713;-33.888;151.150;2023-04-07T07:55:17;1.10;;;0.85;;
44046;SDS011;29713;-33.888;151.150;2023-04-07T07:57:45;1.83;;;1.10;;
44046;SDS011;29713;-33.888;151.150;2023-04-07T08:00:12;2.58;;;0.98;;
44046;SDS011;29713;-33.888;151.150;2023-04-07T08:02:40;2.30;;;0.95;;
44046;SDS011;29713;-33.888;151.150;2023-04-07T08:05:07;1.38;;;0.80;;
44046;SDS011;29713;-33.888;151.150;2023-04-07T08:07:35;0.70;;;0.70;;
44046;SDS011;29713;-33.888;151.150;2023-04-07T08:10:07;1.27;;;0.85;;
44046;SDS011;29713;-33.888;151.150;2023-04-07T08:12:35;1.25;;;1.10;;
44046;SDS011;29713;-33.888;151.150;2023-04-07T08:15:02;1.23;;;1.00;;
44046;SDS011;29713;-33.888;151.150;2023-04-07T08:17:30;2.67;;;0.98;;
44046;SDS011;29713;-33.888;151.150;2023-04-07T08:19:59;1.60;;;0.90;;
44046;SDS011;29713;-33.888;151.150;2023-04-07T08:22:26;1.35;;;0.93;;
44046;SDS011;29713;-33.888;151.150;2023-04-07T08:24:54;1.35;;;0.90;;
44046;SDS011;29713;-33.888;151.150;2023-04-07T08:27:21;4.90;;;2.05;;
44046;SDS011;29713;-33.888;151.150;2023-04-07T08:29:57;3.03;;;1.35;;
44046;SDS011;29713;-33.888;151.150;2023-04-07T08:32:32;2.00;;;1.33;;
44046;SDS011;29713;-33.888;151.150;2023-04-07T08:35:09;1.40;;;1.23;;
44046;SDS011;29713;-33.888;151.150;2023-04-07T08:37:37;1.05;;;1.00;;
44046;SDS011;29713;-33.888;151.150;2023-04-07T08:40:05;0.95;;;0.88;;
44046;SDS011;29713;-33.888;151.150;2023-04-07T08:42:33;2.60;;;1.00;;
44046;SDS011;29713;-33.888;151.150;2023-04-07T08:45:05;1.33;;;1.10;;
44046;SDS011;29713;-33.888;151.150;2023-04-07T08:47:35;1.25;;;0.85;;
44046;SDS011;29713;-33.888;151.150;2023-04-07T08:50:04;1.92;;;1.10;;
44046;SDS011;29713;-33.888;151.150;2023-04-07T08:52:34;1.95;;;1.02;;
44046;SDS011;29713;-33.888;151.150;2023-04-07T08:55:09;1.88;;;1.00;;
44046;SDS011;29713;-33.888;151.150;2023-04-07T08:57:37;4.80;;;1.20;;
44046;SDS011;29713;-33.888;151.150;2023-04-07T09:00:05;1.20;;;0.88;;
44046;SDS011;29713;-33.888;151.150;2023-04-07T09:02:34;1.20;;;1.02;;
44046;SDS011;29713;-33.888;151.150;2023-04-07T09:05:02;1.85;;;1.23;;
44046;SDS011;29713;-33.888;151.150;2023-04-07T09:07:31;2.55;;;1.10;;
44046;SDS011;29713;-33.888;151.150;2023-04-07T09:10:00;1.38;;;1.10;;
44046;SDS011;29713;-33.888;151.150;2023-04-07T09:12:28;2.95;;;1.38;;
44046;SDS011;29713;-33.888;151.150;2023-04-07T09:14:56;1.60;;;1.30;;
44046;SDS011;29713;-33.888;151.150;2023-04-07T09:17:24;1.40;;;1.13;;
44046;SDS011;29713;-33.888;151.150;2023-04-07T09:19:55;2.15;;;1.30;;
44046;SDS011;29713;-33.888;151.150;2023-04-07T09:22:36;1.20;;;0.93;;
44046;SDS011;29713;-33.888;151.150;2023-04-07T09:25:11;1.10;;;1.00;;
44046;SDS011;29713;-33.888;151.150;2023-04-07T09:30:22;3.03;;;1.30;;
44046;SDS011;29713;-33.888;151.150;2023-04-07T09:32:50;8.20;;;5.22;;
44046;SDS011;29713;-33.888;151.150;2023-04-07T09:35:17;1.92;;;1.10;;
44046;SDS011;29713;-33.888;151.150;2023-04-07T09:38:03;3.15;;;1.98;;
44046;SDS011;29713;-33.888;151.150;2023-04-07T09:40:32;1.83;;;1.27;;
44046;SDS011;29713;-33.888;151.150;2023-04-07T09:43:02;2.35;;;1.20;;
44046;SDS011;29713;-33.888;151.150;2023-04-07T09:45:31;2.20;;;0.90;;
44046;SDS011;29713;-33.888;151.150;2023-04-07T09:48:03;1.38;;;1.00;;
44046;SDS011;29713;-33.888;151.150;2023-04-07T09:50:33;2.63;;;1.20;;
44046;SDS011;29713;-33.888;151.150;2023-04-07T09:53:14;2.78;;;1.45;;
44046;SDS011;29713;-33.888;151.150;2023-04-07T09:55:42;1.88;;;1.15;;
44046;SDS011;29713;-33.888;151.150;2023-04-07T09:58:13;1.52;;;1.05;;
44046;SDS011;29713;-33.888;151.150;2023-04-07T10:00:41;2.42;;;1.20;;
44046;SDS011;29713;-33.888;151.150;2023-04-07T10:03:09;1.63;;;0.70;;
44046;SDS011;29713;-33.888;151.150;2023-04-07T10:05:37;1.70;;;0.90;;
44046;SDS011;29713;-33.888;151.150;2023-04-07T10:08:05;0.70;;;0.70;;
44046;SDS011;29713;-33.888;151.150;2023-04-07T10:10:33;0.68;;;0.68;;
44046;SDS011;29713;-33.888;151.150;2023-04-07T10:13:03;1.42;;;0.90;;
44046;SDS011;29713;-33.888;151.150;2023-04-07T10:15:31;0.75;;;0.75;;
44046;SDS011;29713;-33.888;151.150;2023-04-07T10:17:59;1.15;;;0.77;;
44046;SDS011;29713;-33.888;151.150;2023-04-07T10:20:31;1.88;;;1.15;;
44046;SDS011;29713;-33.888;151.150;2023-04-07T10:23:00;1.55;;;0.93;;
44046;SDS011;29713;-33.888;151.150;2023-04-07T10:25:35;1.30;;;0.80;;
44046;SDS011;29713;-33.888;151.150;2023-04-07T10:28:05;1.45;;;0.85;;
44046;SDS011;29713;-33.888;151.150;2023-04-07T10:30:34;3.60;;;1.10;;
44046;SDS011;29713;-33.888;151.150;2023-04-07T10:33:03;1.88;;;1.02;;
44046;SDS011;29713;-33.888;151.150;2023-04-07T10:38:30;1.80;;;0.70;;
44046;SDS011;29713;-33.888;151.150;2023-04-07T10:40:57;1.55;;;0.70;;
44046;SDS011;29713;-33.888;151.150;2023-04-07T10:43:40;1.98;;;0.90;;
44046;SDS011;29713;-33.888;151.150;2023-04-07T10:46:09;0.98;;;0.80;;
44046;SDS011;29713;-33.888;151.150;2023-04-07T10:48:36;1.48;;;0.85;;
44046;SDS011;29713;-33.888;151.150;2023-04-07T10:53:32;0.80;;;0.50;;
44046;SDS011;29713;-33.888;151.150;2023-04-07T10:56:02;1.15;;;0.50;;
44046;SDS011;29713;-33.888;151.150;2023-04-07T10:58:33;1.30;;;0.63;;
44046;SDS011;29713;-33.888;151.150;2023-04-07T11:03:38;1.65;;;0.65;;
44046;SDS011;29713;-33.888;151.150;2023-04-07T11:06:10;1.42;;;0.60;;
44046;SDS011;29713;-33.888;151.150;2023-04-07T11:11:11;0.85;;;0.80;;
44046;SDS011;29713;-33.888;151.150;2023-04-07T11:13:40;0.73;;;0.70;;
44046;SDS011;29713;-33.888;151.150;2023-04-07T11:16:15;2.22;;;0.70;;
44046;SDS011;29713;-33.888;151.150;2023-04-07T11:18:44;1.25;;;0.90;;
44046;SDS011;29713;-33.888;151.150;2023-04-07T11:21:18;1.80;;;1.15;;
44046;SDS011;29713;-33.888;151.150;2023-04-07T11:23:45;1.42;;;1.10;;
44046;SDS011;29713;-33.888;151.150;2023-04-07T11:26:13;3.17;;;1.60;;
44046;SDS011;29713;-33.888;151.150;2023-04-07T11:28:45;2.10;;;1.67;;
44046;SDS011;29713;-33.888;151.150;2023-04-07T11:31:20;5.00;;;2.03;;
44046;SDS011;29713;-33.888;151.150;2023-04-07T11:33:56;3.15;;;2.47;;
44046;SDS011;29713;-33.888;151.150;2023-04-07T11:36:47;2.97;;;2.15;;
44046;SDS011;29713;-33.888;151.150;2023-04-07T11:39:17;2.47;;;2.28;;
44046;SDS011;29713;-33.888;151.150;2023-04-07T11:41:51;3.40;;;2.80;;
44046;SDS011;29713;-33.888;151.150;2023-04-07T11:44:19;3.17;;;2.45;;
44046;SDS011;29713;-33.888;151.150;2023-04-07T11:46:52;3.72;;;2.65;;
44046;SDS011;29713;-33.888;151.150;2023-04-07T11:49:33;4.03;;;2.40;;
44046;SDS011;29713;-33.888;151.150;2023-04-07T11:52:09;4.63;;;2.65;;
44046;SDS011;29713;-33.888;151.150;2023-04-07T11:57:26;1.95;;;1.75;;
44046;SDS011;29713;-33.888;151.150;2023-04-07T12:00:06;4.22;;;2.08;;
44046;SDS011;29713;-33.888;151.150;2023-04-07T12:02:35;2.92;;;2.13;;
44046;SDS011;29713;-33.888;151.150;2023-04-07T12:05:03;6.18;;;2.17;;
44046;SDS011;29713;-33.888;151.150;2023-04-07T12:07:31;3.40;;;1.98;;
44046;SDS011;29713;-33.888;151.150;2023-04-07T12:10:13;2.28;;;1.58;;
44046;SDS011;29713;-33.888;151.150;2023-04-07T12:12:45;2.55;;;1.70;;
44046;SDS011;29713;-33.888;151.150;2023-04-07T12:15:12;1.85;;;1.30;;
44046;SDS011;29713;-33.888;151.150;2023-04-07T12:17:46;2.50;;;1.45;;
44046;SDS011;29713;-33.888;151.150;2023-04-07T12:20:14;5.07;;;1.40;;
44046;SDS011;29713;-33.888;151.150;2023-04-07T12:22:42;5.40;;;1.30;;
44046;SDS011;29713;-33.888;151.150;2023-04-07T12:25:09;4.38;;;1.40;;
44046;SDS011;29713;-33.888;151.150;2023-04-07T12:27:36;2.35;;;1.17;;
44046;SDS011;29713;-33.888;151.150;2023-04-07T12:30:04;3.38;;;1.40;;
44046;SDS011;29713;-33.888;151.150;2023-04-07T12:32:32;1.58;;;0.98;;
44046;SDS011;29713;-33.888;151.150;2023-04-07T12:35:00;1.27;;;1.15;;
44046;SDS011;29713;-33.888;151.150;2023-04-07T12:37:27;1.27;;;0.90;;
44046;SDS011;29713;-33.888;151.150;2023-04-07T12:39:56;3.45;;;1.50;;
44046;SDS011;29713;-33.888;151.150;2023-04-07T12:42:24;1.90;;;1.05;;
44046;SDS011;29713;-33.888;151.150;2023-04-07T12:44:52;4.53;;;1.25;;
44046;SDS011;29713;-33.888;151.150;2023-04-07T12:47:19;1.92;;;1.20;;
44046;SDS011;29713;-33.888;151.150;2023-04-07T12:49:47;2.30;;;1.35;;
44046;SDS011;29713;-33.888;151.150;2023-04-07T12:52:14;2.33;;;1.00;;
44046;SDS011;29713;-33.888;151.150;2023-04-07T12:54:41;3.00;;;1.20;;
44046;SDS011;29713;-33.888;151.150;2023-04-07T12:57:09;2.05;;;1.20;;
44046;SDS011;29713;-33.888;151.150;2023-04-07T12:59:36;2.17;;;1.10;;
44046;SDS011;29713;-33.888;151.150;2023-04-07T13:02:04;1.55;;;0.90;;
44046;SDS011;29713;-33.888;151.150;2023-04-07T13:04:31;2.22;;;1.20;;
44046;SDS011;29713;-33.888;151.150;2023-04-07T13:06:59;2.63;;;1.23;;
44046;SDS011;29713;-33.888;151.150;2023-04-07T13:09:27;2.40;;;1.10;;
44046;SDS011;29713;-33.888;151.150;2023-04-07T13:11:54;1.52;;;1.10;;
44046;SDS011;29713;-33.888;151.150;2023-04-07T13:14:22;2.58;;;1.70;;
44046;SDS011;29713;-33.888;151.150;2023-04-07T13:16:49;1.95;;;1.50;;
44046;SDS011;29713;-33.888;151.150;2023-04-07T13:19:17;3.85;;;1.20;;
44046;SDS011;29713;-33.888;151.150;2023-04-07T13:21:44;2.50;;;1.30;;
44046;SDS011;29713;-33.888;151.150;2023-04-07T13:24:11;1.85;;;1.25;;
44046;SDS011;29713;-33.888;151.150;2023-04-07T13:26:39;3.42;;;1.20;;
44046;SDS011;29713;-33.888;151.150;2023-04-07T13:29:06;2.38;;;1.40;;
44046;SDS011;29713;-33.888;151.150;2023-04-07T13:31:34;2.17;;;1.50;;
44046;SDS011;29713;-33.888;151.150;2023-04-07T13:34:01;2.38;;;1.48;;
44046;SDS011;29713;-33.888;151.150;2023-04-07T13:36:31;1.77;;;1.30;;
44046;SDS011;29713;-33.888;151.150;2023-04-07T13:38:59;4.15;;;1.30;;
44046;SDS011;29713;-33.888;151.150;2023-04-07T13:41:26;3.67;;;1.27;;
44046;SDS011;29713;-33.888;151.150;2023-04-07T13:43:54;3.13;;;1.55;;
44046;SDS011;29713;-33.888;151.150;2023-04-07T13:46:23;4.75;;;1.35;;
44046;SDS011;29713;-33.888;151.150;2023-04-07T13:48:51;1.60;;;1.10;;
44046;SDS011;29713;-33.888;151.150;2023-04-07T13:51:19;3.35;;;1.40;;
44046;SDS011;29713;-33.888;151.150;2023-04-07T13:53:46;1.38;;;1.20;;
44046;SDS011;29713;-33.888;151.150;2023-04-07T13:56:17;2.70;;;1.02;;
44046;SDS011;29713;-33.888;151.150;2023-04-07T13:58:46;1.90;;;1.30;;
44046;SDS011;29713;-33.888;151.150;2023-04-07T14:01:13;1.98;;;1.30;;
44046;SDS011;29713;-33.888;151.150;2023-04-07T14:03:41;1.45;;;1.10;;
44046;SDS011;29713;-33.888;151.150;2023-04-07T14:06:08;1.73;;;1.30;;
44046;SDS011;29713;-33.888;151.150;2023-04-07T14:08:35;2.65;;;1.50;;
44046;SDS011;29713;-33.888;151.150;2023-04-07T14:11:03;5.72;;;1.90;;
44046;SDS011;29713;-33.888;151.150;2023-04-07T14:13:30;4.05;;;1.50;;
44046;SDS011;29713;-33.888;151.150;2023-04-07T14:15:57;2.60;;;1.30;;
44046;SDS011;29713;-33.888;151.150;2023-04-07T14:18:25;2.40;;;1.45;;
44046;SDS011;29713;-33.888;151.150;2023-04-07T14:20:52;4.32;;;1.40;;
44046;SDS011;29713;-33.888;151.150;2023-04-07T14:23:20;2.88;;;1.50;;
44046;SDS011;29713;-33.888;151.150;2023-04-07T14:25:47;2.50;;;1.58;;
44046;SDS011;29713;-33.888;151.150;2023-04-07T14:28:14;2.70;;;1.55;;
44046;SDS011;29713;-33.888;151.150;2023-04-07T14:30:41;2.55;;;1.42;;
44046;SDS011;29713;-33.888;151.150;2023-04-07T14:33:09;3.33;;;1.60;;
44046;SDS011;29713;-33.888;151.150;2023-04-07T14:35:36;6.32;;;2.15;;
44046;SDS011;29713;-33.888;151.150;2023-04-07T14:38:04;3.35;;;1.30;;
44046;SDS011;29713;-33.888;151.150;2023-04-07T14:40:31;1.90;;;1.30;;
44046;SDS011;29713;-33.888;151.150;2023-04-07T14:42:58;1.55;;;1.23;;
44046;SDS011;29713;-33.888;151.150;2023-04-07T14:45:26;2.22;;;1.17;;